Time;durP1;ratioP1;P1;durP2;ratioP2;P2;SDS_P1;SDS_P2;PMS_P1;PMS_P2;Temp;Humidity;BMP_temperature;BMP_pressure;BME280_temperature;BME280_humidity;BME280_pressure;Samples;Min_cycle;Max_cycle;Signal;HPM_P1;HPM_P2
2022/05/04 00:00:21;;;;;;;;;25.75;23.00;;;;;16.44;49.98;101451.00;5065039;28;45149;-72
2022/05/04 00:02:47;;;;;;;;;28.75;25.75;;;;;16.42;50.15;101447.47;5073727;27;45442;-72
2022/05/04 00:05:13;;;;;;;;;22.75;22.00;;;;;16.40;50.10;101460.16;5065798;28;45731;-72
2022/05/04 00:07:38;;;;;;;;;23.75;21.25;;;;;16.34;50.00;101452.34;5069758;28;45592;-72
2022/05/04 00:10:05;;;;;;;;;24.00;23.75;;;;;16.37;50.28;101450.41;5061998;28;45450;-72
2022/05/04 00:12:32;;;;;;;;;27.50;24.75;;;;;16.33;50.17;101447.91;5070740;28;45585;-72
2022/05/04 00:14:57;;;;;;;;;23.00;22.75;;;;;16.31;50.34;101439.91;5066820;28;45543;-72
2022/05/04 00:17:23;;;;;;;;;28.50;26.50;;;;;16.30;50.26;101436.34;5070733;28;46296;-72
2022/05/04 00:19:48;;;;;;;;;21.50;20.75;;;;;16.38;50.31;101443.19;5074170;28;45428;-72
2022/05/04 00:22:21;;;;;;;;;27.00;25.50;;;;;16.31;50.22;101437.22;5065695;28;45361;-72
2022/05/04 00:24:47;;;;;;;;;24.75;23.50;;;;;16.36;50.34;101451.34;5074058;28;45558;-72
2022/05/04 00:27:15;;;;;;;;;31.00;25.75;;;;;16.34;50.35;101438.88;5074040;28;46049;-72
2022/05/04 00:29:42;;;;;;;;;26.75;24.75;;;;;16.32;50.43;101438.94;5067896;28;45318;-72
2022/05/04 00:32:08;;;;;;;;;21.25;20.00;;;;;16.30;50.41;101439.03;5068393;27;45686;-72
2022/05/04 00:34:33;;;;;;;;;30.50;26.75;;;;;16.29;50.49;101434.56;5073497;28;45180;-72
2022/05/04 00:37:01;;;;;;;;;27.00;27.00;;;;;16.26;50.71;101432.03;5074001;28;45363;-72
2022/05/04 00:39:26;;;;;;;;;29.75;28.00;;;;;16.27;50.40;101427.50;5067879;28;45516;-72
2022/05/04 00:41:52;;;;;;;;;29.00;27.00;;;;;16.23;50.58;101432.16;5076359;28;45591;-72
2022/05/04 00:44:17;;;;;;;;;33.25;28.75;;;;;16.21;50.59;101428.66;5067575;28;45255;-72
2022/05/04 00:46:42;;;;;;;;;26.00;25.00;;;;;16.16;50.54;101424.44;5080273;28;45383;-72
2022/05/04 00:49:08;;;;;;;;;25.50;23.50;;;;;16.05;50.88;101427.59;5067977;28;45363;-72
2022/05/04 00:51:34;;;;;;;;;29.00;27.25;;;;;15.97;50.83;101421.66;5079802;28;45699;-72
2022/05/04 00:54:00;;;;;;;;;25.50;25.50;;;;;15.95;51.05;101429.81;5062536;27;45510;-72
2022/05/04 00:56:25;;;;;;;;;28.50;28.50;;;;;15.97;51.14;101430.66;5060981;28;45367;-72
2022/05/04 00:58:57;;;;;;;;;28.25;26.75;;;;;15.96;51.26;101428.88;5070502;28;45388;-72
2022/05/04 01:01:28;;;;;;;;;26.75;24.00;;;;;15.98;51.10;101434.19;5079123;27;45390;-72
2022/05/04 01:03:54;;;;;;;;;29.00;26.75;;;;;15.97;50.86;101430.66;5063642;28;46473;-72
2022/05/04 01:06:20;;;;;;;;;26.25;24.75;;;;;15.99;51.00;101441.31;5060138;28;46213;-72
2022/05/04 01:08:47;;;;;;;;;25.25;23.50;;;;;16.01;51.08;101434.06;5061344;28;45421;-72
2022/05/04 01:11:12;;;;;;;;;28.25;25.75;;;;;16.04;50.98;101433.94;5063051;28;45382;-72
2022/05/04 01:13:37;;;;;;;;;26.75;24.25;;;;;16.04;50.86;101434.81;5073752;28;45442;-72
2022/05/04 01:16:03;;;;;;;;;26.75;23.50;;;;;15.99;51.00;101426.06;5080732;28;46092;-72
2022/05/04 01:18:28;;;;;;;;;34.00;30.25;;;;;15.95;51.04;101431.63;5081014;28;45351;-72
2022/05/04 01:20:54;;;;;;;;;33.50;30.50;;;;;15.93;51.12;101429.00;5079567;28;45756;-72
2022/05/04 01:23:19;;;;;;;;;25.75;24.75;;;;;15.86;51.33;101432.91;5064708;28;45468;-72
2022/05/04 01:25:45;;;;;;;;;30.75;27.75;;;;;15.84;51.19;101432.13;5060358;28;45350;-72
2022/05/04 01:28:11;;;;;;;;;35.75;28.00;;;;;15.85;51.38;101437.41;5063447;28;45252;-72
2022/05/04 01:30:36;;;;;;;;;33.00;27.00;;;;;15.86;51.36;101436.47;5074703;28;45527;-72
2022/05/04 01:33:03;;;;;;;;;32.50;29.75;;;;;15.86;51.46;101438.31;5065207;28;45267;-72
2022/05/04 01:35:29;;;;;;;;;31.00;29.25;;;;;15.83;51.33;101430.34;5059215;28;45958;-72
2022/05/04 01:37:54;;;;;;;;;27.75;26.25;;;;;15.77;51.55;101430.63;5060100;28;45394;-72
2022/05/04 01:40:19;;;;;;;;;27.50;27.50;;;;;15.78;51.33;101435.06;5071369;28;45299;-72
2022/05/04 01:42:45;;;;;;;;;27.50;27.50;;;;;15.82;51.44;101433.97;5071364;28;45516;-72
2022/05/04 01:45:11;;;;;;;;;26.75;25.00;;;;;15.86;51.46;101443.69;5072141;28;45501;-72
2022/05/04 01:47:36;;;;;;;;;28.25;27.75;;;;;15.84;51.21;101443.75;5066481;28;45321;-72
2022/05/04 01:50:03;;;;;;;;;25.25;25.25;;;;;15.85;51.49;101437.41;5060362;28;45229;-72
2022/05/04 01:52:29;;;;;;;;;28.50;27.50;;;;;15.82;51.30;101434.88;5079156;28;45491;-72
2022/05/04 01:54:55;;;;;;;;;30.25;24.00;;;;;15.74;51.41;101434.28;5064462;28;47028;-72
2022/05/04 01:57:20;;;;;;;;;27.50;24.75;;;;;15.61;51.48;101428.56;5063785;28;45422;-72
2022/05/04 01:59:46;;;;;;;;;30.25;29.50;;;;;15.59;51.61;101429.56;5076059;28;45480;-72
2022/05/04 02:02:11;;;;;;;;;26.75;26.75;;;;;15.60;51.79;101434.88;5076570;28;45362;-72
2022/05/04 02:04:38;;;;;;;;;35.50;29.50;;;;;15.57;51.90;101437.72;5060858;28;45330;-72
2022/05/04 02:07:04;;;;;;;;;28.25;25.50;;;;;15.57;51.99;101438.56;5059827;28;45303;-72
2022/05/04 02:09:29;;;;;;;;;24.50;22.25;;;;;15.62;52.01;101442.88;5060698;28;45651;-72
2022/05/04 02:11:55;;;;;;;;;30.75;28.75;;;;;15.61;52.05;101441.16;5059776;28;45283;-71
2022/05/04 02:14:20;;;;;;;;;30.25;28.25;;;;;15.63;51.92;101437.44;5080051;28;45592;-72
2022/05/04 02:16:46;;;;;;;;;26.00;25.25;;;;;15.65;51.68;101440.97;5078244;28;45240;-72
2022/05/04 02:19:12;;;;;;;;;33.00;29.50;;;;;15.65;51.88;101442.75;5079882;28;45483;-72
2022/05/04 02:21:37;;;;;;;;;29.50;24.50;;;;;15.58;51.91;101431.38;5068663;28;45346;-72
2022/05/04 02:24:03;;;;;;;;;30.00;25.75;;;;;15.59;52.10;101434.97;5078441;28;46131;-72
2022/05/04 02:26:28;;;;;;;;;27.50;26.25;;;;;15.62;52.02;101434.81;5080053;27;45373;-72
2022/05/04 02:28:54;;;;;;;;;34.25;30.50;;;;;15.57;52.09;101429.63;5075269;28;45388;-72
2022/05/04 02:31:19;;;;;;;;;31.50;29.50;;;;;15.54;52.03;101422.56;5065262;28;45541;-72
2022/05/04 02:33:47;;;;;;;;;29.50;27.50;;;;;15.55;52.37;101423.44;5057878;28;46197;-72
2022/05/04 02:38:57;;;;;;;;;34.00;31.50;;;;;15.50;52.04;101420.94;5079698;28;45566;-72
2022/05/04 02:41:22;;;;;;;;;26.75;24.50;;;;;15.50;52.27;101425.44;5065819;28;45435;-72
2022/05/04 02:43:48;;;;;;;;;30.75;27.50;;;;;15.49;52.17;101421.88;5068438;28;45368;-72
2022/05/04 02:46:13;;;;;;;;;27.25;27.25;;;;;15.51;52.48;101421.81;5060238;28;45364;-72
2022/05/04 02:48:38;;;;;;;;;39.25;28.50;;;;;15.52;52.52;101432.53;5074715;28;45480;-72
2022/05/04 02:51:04;;;;;;;;;30.25;29.25;;;;;15.47;52.57;101433.63;5068641;28;45418;-72
2022/05/04 02:53:29;;;;;;;;;32.50;29.50;;;;;15.43;52.53;101413.19;5066759;27;46085;-72
2022/05/04 02:55:54;;;;;;;;;31.75;28.50;;;;;15.46;52.39;101422.00;5071075;28;45306;-72
2022/05/04 02:58:20;;;;;;;;;33.50;31.00;;;;;15.48;52.45;101411.19;5069190;28;45812;-72
2022/05/04 03:00:45;;;;;;;;;28.75;25.50;;;;;15.48;52.29;101406.66;5068934;28;45586;-72
2022/05/04 03:03:10;;;;;;;;;30.75;29.75;;;;;15.53;52.53;101411.84;5063917;28;45460;-72
2022/05/04 03:05:36;;;;;;;;;28.75;27.00;;;;;15.54;52.14;101413.63;5070680;28;45299;-72
2022/05/04 03:08:01;;;;;;;;;31.25;26.75;;;;;15.53;52.38;101410.03;5079828;28;45235;-72
2022/05/04 03:10:27;;;;;;;;;34.00;30.00;;;;;15.50;52.17;101409.28;5074667;28;45254;-72
2022/05/04 03:12:52;;;;;;;;;32.25;29.50;;;;;15.51;52.31;101411.06;5076261;28;45299;-72
2022/05/04 03:15:17;;;;;;;;;32.00;29.00;;;;;15.48;52.38;101405.78;5062974;28;45260;-72
2022/05/04 03:17:43;;;;;;;;;34.00;30.50;;;;;15.51;52.48;101402.97;5078421;28;45370;-72
2022/05/04 03:20:11;;;;;;;;;30.50;28.50;;;;;15.52;52.25;101408.31;5075482;28;45301;-72
2022/05/04 03:22:37;;;;;;;;;36.25;32.00;;;;;15.51;52.21;101403.84;5065785;28;47116;-72
2022/05/04 03:25:06;;;;;;;;;35.75;30.00;;;;;15.51;52.45;101403.84;5062562;28;45166;-72
2022/05/04 03:27:32;;;;;;;;;36.00;31.50;;;;;15.47;52.27;101402.25;5062811;28;45377;-72
2022/05/04 03:29:57;;;;;;;;;31.00;27.50;;;;;15.40;52.49;101399.88;5068150;28;45450;-72
2022/05/04 03:32:22;;;;;;;;;43.25;33.50;;;;;15.33;52.50;101402.81;5078148;28;45975;-72
2022/05/04 03:34:48;;;;;;;;;39.75;34.00;;;;;15.37;52.50;101403.56;5071512;28;45284;-72
2022/05/04 03:37:14;;;;;;;;;33.00;31.75;;;;;15.36;52.60;101408.06;5080259;28;45365;-72
2022/05/04 03:39:39;;;;;;;;;41.75;37.00;;;;;15.36;52.60;101402.69;5062385;28;45561;-72
2022/05/04 03:42:05;;;;;;;;;41.00;36.00;;;;;15.33;52.27;101397.41;5069556;28;45346;-72
2022/05/04 03:44:30;;;;;;;;;49.00;36.00;;;;;15.32;52.48;101408.28;5073556;28;45260;-72
2022/05/04 03:46:55;;;;;;;;;50.75;39.75;;;;;15.27;52.69;101403.06;5066626;28;45414;-72
2022/05/04 03:49:23;;;;;;;;;47.50;39.75;;;;;15.27;52.72;101400.38;5062552;28;45554;-72
2022/05/04 03:51:50;;;;;;;;;46.75;38.25;;;;;15.30;52.52;101400.25;5068149;28;47277;-72
2022/05/04 03:54:15;;;;;;;;;47.25;40.00;;;;;15.29;52.48;101389.56;5061913;27;45445;-72
2022/05/04 03:56:41;;;;;;;;;51.50;42.50;;;;;15.27;52.43;101388.72;5075873;28;45361;-72
2022/05/04 03:59:07;;;;;;;;;52.25;41.00;;;;;15.34;52.34;101406.38;5062980;28;45385;-72
2022/05/04 04:01:33;;;;;;;;;46.25;38.75;;;;;15.33;52.29;101404.63;5069708;28;45333;-72
2022/05/04 04:03:58;;;;;;;;;45.25;38.75;;;;;15.28;52.48;101399.44;5063190;28;45299;-72
2022/05/04 04:06:24;;;;;;;;;44.25;36.50;;;;;15.29;52.15;101394.94;5076299;28;45314;-72
2022/05/04 04:08:50;;;;;;;;;31.50;31.00;;;;;15.30;52.24;101402.97;5079512;28;45218;-72
2022/05/04 04:11:16;;;;;;;;;40.50;34.00;;;;;15.29;52.35;101398.50;5062283;28;46376;-72
2022/05/04 04:13:41;;;;;;;;;31.00;30.00;;;;;15.30;52.29;101396.69;5074606;28;45201;-72
2022/05/04 04:16:07;;;;;;;;;34.75;30.00;;;;;15.27;52.33;101402.19;5061955;28;45333;-72
2022/05/04 04:18:32;;;;;;;;;34.75;31.00;;;;;15.22;52.40;101394.31;5061997;28;45527;-72
2022/05/04 04:23:42;;;;;;;;;38.00;34.00;;;;;15.20;52.15;101396.19;5062821;28;45393;-72
2022/05/04 04:26:09;;;;;;;;;33.00;27.00;;;;;15.14;52.58;101402.69;5061559;28;45254;-72
2022/05/04 04:28:38;;;;;;;;;34.25;31.00;;;;;15.15;52.38;101412.53;5063164;28;45505;-72
2022/05/04 04:31:04;;;;;;;;;28.50;27.50;;;;;15.12;52.51;101409.09;5061094;28;46205;-72
2022/05/04 04:33:29;;;;;;;;;34.75;31.00;;;;;15.16;52.54;101413.41;5072935;28;45315;-73
2022/05/04 04:36:02;;;;;;;;;33.50;31.00;;;;;15.11;52.52;101408.19;5076621;28;45310;-72
2022/05/04 04:38:28;;;;;;;;;31.25;29.75;;;;;15.01;52.48;101418.44;5059956;28;46077;-72
2022/05/04 04:40:54;;;;;;;;;33.50;32.50;;;;;14.91;52.61;101411.69;5065156;28;46267;-72
2022/05/04 04:43:20;;;;;;;;;38.75;32.00;;;;;14.91;52.75;101419.75;5068808;28;45275;-72
2022/05/04 04:45:47;;;;;;;;;33.00;30.75;;;;;14.86;52.77;101410.13;5064502;28;45496;-72
2022/05/04 04:48:15;;;;;;;;;32.00;30.00;;;;;14.89;52.68;101420.75;5061599;28;45298;-72
2022/05/04 04:50:44;;;;;;;;;35.00;31.00;;;;;14.87;52.96;101414.56;5060865;28;46012;-73
2022/05/04 04:53:10;;;;;;;;;28.00;23.25;;;;;14.85;52.79;101421.81;5060662;28;45319;-74
2022/05/04 04:55:35;;;;;;;;;30.00;27.00;;;;;14.85;52.89;101422.72;5067441;28;45496;-65
2022/05/04 04:58:01;;;;;;;;;28.25;26.50;;;;;14.86;53.10;101423.56;5067609;28;45430;-65
2022/05/04 05:00:27;;;;;;;;;23.25;22.25;;;;;14.85;53.04;101422.72;5061061;28;45517;-65
2022/05/04 05:02:52;;;;;;;;;32.00;29.50;;;;;14.85;52.76;101420.00;5063969;28;45216;-65
2022/05/04 05:05:18;;;;;;;;;34.25;30.50;;;;;14.76;52.91;101417.69;5070444;28;45537;-65
2022/05/04 05:07:43;;;;;;;;;32.00;29.50;;;;;14.74;53.10;101417.72;5066301;28;45166;-65
2022/05/04 05:10:09;;;;;;;;;32.25;31.00;;;;;14.77;53.26;101428.38;5077046;28;46019;-65
2022/05/04 05:12:34;;;;;;;;;33.00;30.25;;;;;14.74;52.98;101425.78;5064203;28;45366;-65
2022/05/04 05:17:43;;;;;;;;;33.75;31.50;;;;;14.69;53.10;101430.47;5063688;28;45559;-65
2022/05/04 05:20:09;;;;;;;;;34.75;31.50;;;;;14.69;53.39;101427.78;5069635;28;45391;-65
2022/05/04 05:22:35;;;;;;;;;33.50;30.50;;;;;14.72;53.38;101429.50;5074712;28;45530;-65
2022/05/04 05:25:00;;;;;;;;;31.00;27.50;;;;;14.75;53.22;101429.34;5076897;28;45412;-65
2022/05/04 05:27:29;;;;;;;;;35.25;31.25;;;;;14.72;53.17;101426.81;5065854;28;45254;-65
2022/05/04 05:29:54;;;;;;;;;28.00;27.00;;;;;14.71;53.38;101425.03;5069584;28;45393;-65
2022/05/04 05:32:19;;;;;;;;;28.00;26.75;;;;;14.73;53.42;101433.91;5072121;28;45318;-65
2022/05/04 05:34:45;;;;;;;;;37.25;31.25;;;;;14.68;53.39;101442.16;5077406;28;45552;-65
2022/05/04 05:37:10;;;;;;;;;35.75;30.00;;;;;14.62;53.49;101437.03;5071333;28;45479;-65
2022/05/04 05:39:35;;;;;;;;;41.50;34.50;;;;;14.62;53.61;101435.22;5062784;28;47040;-65
2022/05/04 05:42:00;;;;;;;;;32.25;28.00;;;;;14.62;53.30;101437.91;5067879;28;45457;-65
2022/05/04 05:44:26;;;;;;;;;31.50;26.75;;;;;14.54;53.69;101431.03;5078037;28;45419;-65
2022/05/04 05:46:51;;;;;;;;;32.00;30.75;;;;;14.53;53.54;101440.88;5071843;28;45432;-65
2022/05/04 05:49:17;;;;;;;;;33.25;28.50;;;;;14.40;53.73;101435.13;5066717;28;46896;-65
2022/05/04 05:51:42;;;;;;;;;32.25;31.25;;;;;14.48;53.92;101434.81;5065124;28;45494;-65
2022/05/04 05:54:07;;;;;;;;;35.50;30.50;;;;;14.46;53.49;101445.59;5063477;28;45337;-66
2022/05/04 05:56:33;;;;;;;;;31.25;27.00;;;;;14.51;53.83;101449.94;5064523;28;45955;-66
2022/05/04 05:58:59;;;;;;;;;26.75;26.00;;;;;14.56;53.55;101448.84;5068924;28;45310;-66
2022/05/04 06:01:24;;;;;;;;;33.50;32.00;;;;;14.60;53.74;101452.31;5063752;28;45405;-66
2022/05/04 06:03:50;;;;;;;;;29.00;27.50;;;;;14.60;54.05;101450.53;5061478;28;45663;-66
2022/05/04 06:06:15;;;;;;;;;29.00;28.25;;;;;14.63;53.55;101454.88;5090436;27;45339;-65
2022/05/04 06:08:41;;;;;;;;;33.75;31.00;;;;;14.58;53.45;101449.69;5058973;28;45649;-66
2022/05/04 06:11:07;;;;;;;;;28.50;25.50;;;;;14.55;53.20;101454.25;5071259;28;45425;-66
2022/05/04 06:13:32;;;;;;;;;36.25;31.25;;;;;14.54;53.06;101448.03;5068828;28;45378;-66
2022/05/04 06:15:57;;;;;;;;;31.25;28.75;;;;;14.53;53.69;101443.56;5066037;28;45588;-67
2022/05/04 06:18:23;;;;;;;;;40.25;29.50;;;;;14.52;53.75;101451.72;5068290;27;46205;-66
2022/05/04 06:20:48;;;;;;;;;26.50;23.75;;;;;14.54;53.69;101460.59;5072017;28;45328;-66
2022/05/04 06:23:14;;;;;;;;;36.50;31.25;;;;;14.57;53.26;101477.47;5069258;28;45826;-66
2022/05/04 06:25:41;;;;;;;;;34.00;28.25;;;;;14.58;53.61;101479.22;5078955;28;45431;-66
2022/05/04 06:28:06;;;;;;;;;29.00;28.00;;;;;14.56;53.41;101464.09;5075213;28;47216;-66
2022/05/04 06:35:59;;;;;;;;;39.00;33.50;;;;;14.55;53.56;101479.34;5075949;28;45403;-74
2022/05/04 06:38:24;;;;;;;;;33.25;30.50;;;;;14.50;53.36;101467.00;5067023;28;46007;-74
2022/05/04 06:40:50;;;;;;;;;35.00;32.75;;;;;14.50;53.68;101475.06;5067585;28;45519;-74
2022/05/04 06:43:15;;;;;;;;;35.50;31.50;;;;;14.48;53.56;101472.41;5077705;28;46003;-73
2022/05/04 06:45:41;;;;;;;;;36.00;31.75;;;;;14.46;53.68;101469.78;5061063;27;45464;-74
2022/05/04 06:48:07;;;;;;;;;31.75;30.50;;;;;14.44;53.62;101468.97;5068135;28;45361;-74
2022/05/04 06:50:32;;;;;;;;;30.00;28.25;;;;;14.36;53.64;101465.69;5061598;28;47068;-74
2022/05/04 06:52:57;;;;;;;;;37.50;32.50;;;;;14.45;53.72;101476.13;5070487;28;45256;-74
2022/05/04 06:55:23;;;;;;;;;28.00;27.00;;;;;14.43;54.03;101469.94;5052760;28;45641;-74
2022/05/04 06:57:48;;;;;;;;;36.25;33.50;;;;;14.46;53.80;101467.09;5066826;28;46455;-74
2022/05/04 07:00:14;;;;;;;;;37.75;31.25;;;;;14.54;53.74;101482.09;5062356;28;45349;-74
2022/05/04 07:02:40;;;;;;;;;36.25;33.25;;;;;14.55;54.03;101473.97;5071899;28;45516;-74
2022/05/04 07:05:06;;;;;;;;;32.00;31.00;;;;;14.60;53.54;101479.19;5071019;28;45491;-74
2022/05/04 07:07:33;;;;;;;;;33.75;30.75;;;;;14.62;53.77;101474.66;5060871;28;47325;-75
2022/05/04 07:09:59;;;;;;;;;34.00;31.00;;;;;14.60;53.39;101481.88;5075516;28;45439;-74
2022/05/04 07:12:24;;;;;;;;;33.75;30.75;;;;;14.57;53.81;101482.84;5058458;28;45377;-74
2022/05/04 07:14:51;;;;;;;;;40.75;34.00;;;;;14.55;53.60;101478.44;5066698;28;45730;-74
2022/05/04 07:17:17;;;;;;;;;28.00;27.00;;;;;14.54;53.63;101485.63;5058221;28;48142;-74
2022/05/04 07:19:43;;;;;;;;;34.50;29.75;;;;;14.56;53.60;101488.25;5060505;27;45852;-76
2022/05/04 07:22:09;;;;;;;;;38.00;32.75;;;;;14.61;53.86;101484.50;5060532;28;44818;-76
2022/05/04 07:24:35;;;;;;;;;37.75;31.25;;;;;14.64;53.91;101492.44;5063579;28;45591;-71
2022/05/04 07:27:00;;;;;;;;;40.00;33.50;;;;;14.67;53.69;101487.88;5067131;27;46128;-67
2022/05/04 07:29:25;;;;;;;;;41.50;34.00;;;;;14.74;53.75;101495.66;5066445;28;45669;-68
2022/05/04 07:31:51;;;;;;;;;34.00;32.75;;;;;14.77;53.57;101505.44;5063712;28;45538;-68
2022/05/04 07:34:19;;;;;;;;;31.00;29.00;;;;;14.82;53.41;101503.44;5071972;28;45438;-68
2022/05/04 07:36:45;;;;;;;;;41.25;33.00;;;;;14.83;53.62;101505.19;5066591;28;46235;-68
2022/05/04 07:42:21;;;;;;;;;37.75;34.25;;;;;14.84;53.80;101506.94;5076645;28;45457;-68
2022/05/04 07:44:40;;;;;;;;;39.75;33.00;;;;;14.82;53.73;101507.00;5065682;28;45448;-68
2022/05/04 07:47:06;;;;;;;;;36.75;32.75;;;;;14.82;53.92;101515.06;5062230;27;46428;-68
2022/05/04 07:49:31;;;;;;;;;37.75;33.25;;;;;14.85;53.91;101506.03;5063543;28;45449;-68
2022/05/04 07:51:57;;;;;;;;;41.00;34.50;;;;;14.84;53.52;101506.09;5063132;28;45381;-68
2022/05/04 07:54:22;;;;;;;;;38.75;34.25;;;;;14.79;53.66;101503.56;5067335;28;45428;-68
2022/05/04 07:56:47;;;;;;;;;41.25;35.25;;;;;14.86;54.02;101507.75;5059817;27;45448;-68
2022/05/04 07:59:13;;;;;;;;;43.00;33.00;;;;;14.86;53.83;101510.44;5063530;28;45578;-68
2022/05/04 08:04:22;;;;;;;;;43.00;34.00;;;;;14.86;53.86;101499.69;5067557;28;45387;-66
2022/05/04 08:06:48;;;;;;;;;44.00;34.75;;;;;14.89;53.50;101501.41;5060839;28;45669;-67
2022/05/04 08:09:13;;;;;;;;;37.50;33.00;;;;;14.84;53.47;101489.97;5068320;28;45435;-66
2022/05/04 08:11:40;;;;;;;;;47.00;36.75;;;;;14.92;53.71;101506.66;5069764;28;45500;-67
2022/05/04 08:14:07;;;;;;;;;35.25;32.50;;;;;14.91;53.86;101494.16;5066329;28;45397;-68
2022/05/04 08:16:32;;;;;;;;;30.50;29.25;;;;;14.89;53.86;101482.59;5060868;28;46168;-68
2022/05/04 08:19:00;;;;;;;;;34.50;29.00;;;;;15.06;53.96;101500.75;5068329;28;45449;-67
2022/05/04 08:21:26;;;;;;;;;33.00;30.00;;;;;15.11;53.64;101502.31;5064168;28;45699;-70
2022/05/04 08:23:51;;;;;;;;;50.75;39.00;;;;;15.14;54.00;101510.25;5065009;28;45395;-68
2022/05/04 08:26:16;;;;;;;;;48.50;39.00;;;;;15.08;53.61;101499.75;5065009;28;45531;-68
2022/05/04 08:28:42;;;;;;;;;39.25;35.25;;;;;15.10;53.94;101513.13;5073264;28;45356;-68
2022/05/04 08:31:07;;;;;;;;;39.25;34.00;;;;;15.09;53.80;101511.38;5068859;28;45452;-68
2022/05/04 08:33:32;;;;;;;;;34.75;27.50;;;;;15.07;54.09;101506.06;5060520;28;45355;-68
2022/05/04 08:35:58;;;;;;;;;44.25;38.25;;;;;15.13;54.02;101503.13;5069797;28;46098;-71
2022/05/04 08:38:23;;;;;;;;;38.50;33.25;;;;;15.12;54.17;101501.38;5069009;28;45288;-68
2022/05/04 08:40:55;;;;;;;;;46.50;39.00;;;;;15.20;54.12;101509.13;5079519;28;45555;-68
2022/05/04 08:43:24;;;;;;;;;33.75;32.50;;;;;15.25;53.94;101501.78;5069196;28;45618;-68
2022/05/04 08:45:52;;;;;;;;;46.75;36.50;;;;;15.34;53.60;101497.84;5067597;28;48180;-68
2022/05/04 08:48:18;;;;;;;;;39.75;35.50;;;;;15.36;53.71;101488.75;5073626;28;45458;-68
2022/05/04 08:50:44;;;;;;;;;40.75;35.75;;;;;15.43;53.74;101493.91;5061111;28;45457;-68
2022/05/04 08:53:12;;;;;;;;;40.75;35.75;;;;;15.43;53.35;101491.22;5062690;28;46292;-68
2022/05/04 08:55:38;;;;;;;;;47.25;36.75;;;;;15.46;53.34;101494.66;5068233;28;46100;-68
2022/05/04 08:58:04;;;;;;;;;45.50;37.75;;;;;15.56;53.31;101505.91;5066303;27;45685;-68
2022/05/04 09:00:30;;;;;;;;;40.25;33.50;;;;;15.67;53.36;101511.72;5065307;28;45342;-68
2022/05/04 09:02:55;;;;;;;;;40.75;32.00;;;;;15.70;53.26;101502.63;5072211;28;45510;-68
2022/05/04 09:05:26;;;;;;;;;42.50;34.25;;;;;15.76;53.56;101509.63;5065093;28;46156;-68
2022/05/04 09:07:54;;;;;;;;;41.00;33.75;;;;;15.66;53.57;101491.13;5073072;28;45499;-68
2022/05/04 09:10:34;;;;;;;;;41.75;35.75;;;;;15.82;53.06;101507.56;5080284;28;45460;-68
2022/05/04 09:13:01;;;;;;;;;46.25;34.00;;;;;15.88;53.10;101519.88;5061316;28;45457;-68
2022/05/04 09:15:29;;;;;;;;;42.25;35.25;;;;;15.94;53.03;101522.31;5060274;28;45497;-68
2022/05/04 09:18:03;;;;;;;;;39.50;34.50;;;;;15.96;53.26;101523.13;5058764;28;45461;-68
2022/05/04 09:20:51;;;;;;;;;46.75;36.75;;;;;15.98;53.32;101525.75;5064918;28;45395;-68
2022/05/04 09:23:21;;;;;;;;;43.00;35.25;;;;;15.95;53.07;101512.41;5078165;27;45528;-68
2022/05/04 09:25:51;;;;;;;;;34.50;31.50;;;;;16.01;52.39;101517.53;5072349;28;46178;-68
2022/05/04 09:28:18;;;;;;;;;38.75;34.50;;;;;16.00;52.18;101510.41;5066464;27;45500;-68
2022/05/04 09:30:49;;;;;;;;;40.50;34.50;;;;;16.04;52.33;101515.59;5073506;28;45468;-68
2022/05/04 09:33:19;;;;;;;;;35.25;31.25;;;;;16.09;52.31;101513.56;5064118;28;45388;-68
2022/05/04 09:35:45;;;;;;;;;40.25;32.75;;;;;16.13;52.40;101513.44;5072386;28;47399;-68
2022/05/04 09:46:37;;;;;;;;;33.25;29.75;;;;;16.24;51.75;101508.47;5063496;28;45489;-68
2022/05/04 09:49:10;;;;;;;;;32.75;30.00;;;;;16.27;51.96;101506.50;5072660;28;45726;-68
2022/05/04 09:51:36;;;;;;;;;35.75;32.00;;;;;16.26;51.58;101499.38;5063523;28;45396;-66
2022/05/04 09:54:27;;;;;;;;;35.75;32.00;;;;;16.30;51.62;101508.19;5058514;28;45310;-68
2022/05/04 09:57:00;;;;;;;;;39.00;33.50;;;;;16.34;51.61;101496.34;5071817;28;46280;-68
2022/05/04 09:59:31;;;;;;;;;33.50;31.00;;;;;16.39;51.35;101497.00;5058469;28;45614;-68
2022/05/04 10:01:59;;;;;;;;;31.50;29.75;;;;;16.44;51.45;101492.28;5073482;28;45373;-68
2022/05/04 10:04:26;;;;;;;;;33.50;30.75;;;;;16.48;51.39;101495.72;5064104;28;45785;-68
2022/05/04 10:06:52;;;;;;;;;32.75;30.50;;;;;16.50;51.38;101491.13;5066150;28;46004;-68
2022/05/04 10:09:18;;;;;;;;;28.25;27.75;;;;;16.54;51.04;101492.75;5069986;28;45611;-68
2022/05/04 10:11:45;;;;;;;;;41.00;35.25;;;;;16.58;51.03;101488.97;5076147;28;45472;-68
2022/05/04 10:14:15;;;;;;;;;32.50;29.50;;;;;16.59;51.01;101482.63;5069025;28;45784;-68
2022/05/04 10:16:46;;;;;;;;;34.75;32.00;;;;;16.61;51.18;101486.13;5065194;28;45472;-68
2022/05/04 10:19:18;;;;;;;;;34.00;29.50;;;;;16.56;50.96;101476.50;5058944;28;45434;-68
2022/05/04 10:21:48;;;;;;;;;34.50;30.75;;;;;16.68;50.80;101487.59;5059645;28;45564;-69
2022/05/04 10:24:17;;;;;;;;;37.00;31.50;;;;;16.64;50.34;101474.34;5070564;28;45352;-68
2022/05/04 10:26:45;;;;;;;;;33.50;30.25;;;;;16.65;50.71;101468.84;5059608;28;46279;-69
2022/05/04 10:32:07;;;;;;;;;33.25;30.50;;;;;16.80;50.82;101488.84;5072187;28;45604;-68
2022/05/04 10:34:34;;;;;;;;;35.75;29.50;;;;;16.86;50.38;101493.13;5058519;28;45467;-67
2022/05/04 10:36:59;;;;;;;;;37.00;32.50;;;;;16.91;50.14;101498.31;5064680;28;45415;-68
2022/05/04 10:39:24;;;;;;;;;31.50;26.75;;;;;16.94;49.95;101496.34;5058345;28;45462;-68
2022/05/04 10:41:50;;;;;;;;;32.50;27.50;;;;;16.97;49.92;101498.91;5073470;28;45409;-68
2022/05/04 10:44:17;;;;;;;;;34.50;28.50;;;;;16.94;50.55;101493.63;5064255;28;45437;-68
2022/05/04 10:46:46;;;;;;;;;32.00;29.00;;;;;17.07;49.90;101502.00;5066279;28;46351;-68
2022/05/04 10:49:14;;;;;;;;;34.25;30.00;;;;;17.13;50.26;101500.84;5058410;28;45378;-68
2022/05/04 10:51:42;;;;;;;;;31.75;25.25;;;;;17.17;49.44;101505.13;5062407;28;45222;-68
2022/05/04 10:54:17;;;;;;;;;28.50;27.00;;;;;17.20;49.72;101505.84;5058423;28;45747;-68
2022/05/04 10:56:45;;;;;;;;;28.50;25.50;;;;;17.24;49.12;101501.22;5064030;28;47013;-68
2022/05/04 10:59:34;;;;;;;;;30.25;27.00;;;;;17.26;49.04;101498.41;5058240;28;45332;-67
2022/05/04 11:02:05;;;;;;;;;33.00;28.50;;;;;17.33;49.26;101511.53;5071625;28;45188;-68
2022/05/04 11:04:31;;;;;;;;;35.75;26.75;;;;;17.36;48.83;101506.00;5076428;28;45272;-68
2022/05/04 11:07:06;;;;;;;;;26.25;24.25;;;;;17.38;48.80;101493.31;5060505;28;45505;-68
2022/05/04 11:09:33;;;;;;;;;25.25;23.50;;;;;17.47;48.25;101496.50;5075372;28;45382;-68
2022/05/04 11:12:01;;;;;;;;;22.50;21.25;;;;;17.38;48.10;101481.66;5064392;28;45193;-68
2022/05/04 11:14:26;;;;;;;;;26.25;24.75;;;;;17.43;48.15;101481.44;5062414;28;45532;-68
2022/05/04 11:16:54;;;;;;;;;27.75;25.25;;;;;17.53;48.07;101488.13;5081359;28;45396;-68
2022/05/04 11:19:23;;;;;;;;;23.00;20.25;;;;;17.49;47.90;101478.41;5067779;28;45746;-68
2022/05/04 11:21:48;;;;;;;;;25.25;21.25;;;;;17.58;47.54;101483.34;5070726;28;45580;-68
2022/05/04 11:24:16;;;;;;;;;19.50;19.25;;;;;17.61;47.99;101480.50;5063984;28;45390;-68
2022/05/04 11:26:49;;;;;;;;;21.00;19.25;;;;;17.60;47.38;101468.81;5075741;28;46355;-68
2022/05/04 11:29:18;;;;;;;;;28.00;24.25;;;;;17.63;46.91;101473.19;5061688;28;45509;-68
2022/05/04 11:31:47;;;;;;;;;22.00;20.25;;;;;17.69;47.00;101483.69;5077046;28;45528;-68
2022/05/04 11:34:17;;;;;;;;;24.00;22.25;;;;;17.72;47.36;101480.81;5061863;28;45305;-67
2022/05/04 11:36:47;;;;;;;;;20.00;18.25;;;;;17.76;47.17;101476.16;5073523;28;45783;-68